createdAt,value
2023-04-21T00:00:32.938Z,1002.85
2023-04-21T00:01:32.997Z,1002.82
2023-04-21T00:02:35.318Z,1002.81
2023-04-21T00:03:33.277Z,1002.74
2023-04-21T00:04:33.072Z,1002.75
2023-04-21T00:05:33.003Z,1002.75
2023-04-21T00:06:32.905Z,1002.75
2023-04-21T00:07:32.847Z,1002.75
2023-04-21T00:08:32.854Z,1002.76
2023-04-21T00:09:32.848Z,1002.75
2023-04-21T00:10:32.882Z,1002.68
2023-04-21T00:11:32.824Z,1002.69
2023-04-21T00:12:32.807Z,1002.71
2023-04-21T00:13:32.808Z,1002.70
2023-04-21T00:14:32.794Z,1002.71
2023-04-21T00:15:32.800Z,1002.66
2023-04-21T00:16:32.936Z,1002.74
2023-04-21T00:17:32.784Z,1002.71
2023-04-21T00:18:32.766Z,1002.63
2023-04-21T00:19:32.750Z,1002.60
2023-04-21T00:20:32.738Z,1002.60
2023-04-21T00:21:32.726Z,1002.56
2023-04-21T00:22:32.707Z,1002.58
2023-04-21T00:23:32.697Z,1002.55
2023-04-21T00:24:32.705Z,1002.57
2023-04-21T00:25:32.678Z,1002.55
2023-04-21T00:26:32.668Z,1002.50
2023-04-21T00:27:32.640Z,1002.52
2023-04-21T00:28:32.644Z,1002.48
2023-04-21T00:29:32.652Z,1002.47
2023-04-21T00:30:32.616Z,1002.45
2023-04-21T00:31:32.618Z,1002.43
2023-04-21T00:32:32.631Z,1002.44
2023-04-21T00:33:32.578Z,1002.43
2023-04-21T00:34:32.611Z,1002.42
2023-04-21T00:35:32.587Z,1002.45
2023-04-21T00:36:32.557Z,1002.45
2023-04-21T00:37:32.559Z,1002.45
2023-04-21T00:38:32.534Z,1002.41
2023-04-21T00:39:32.531Z,1002.39
2023-04-21T00:40:32.544Z,1002.37
2023-04-21T00:41:32.520Z,1002.38
2023-04-21T00:42:32.487Z,1002.40
2023-04-21T00:43:32.495Z,1002.37
2023-04-21T00:44:32.452Z,1002.36
2023-04-21T00:45:32.460Z,1002.34
2023-04-21T00:46:32.493Z,1002.36
2023-04-21T00:47:32.454Z,1002.35
2023-04-21T00:48:32.445Z,1002.31
2023-04-21T00:49:32.409Z,1002.34
2023-04-21T00:50:32.427Z,1002.33
2023-04-21T00:51:32.379Z,1002.34
2023-04-21T00:52:32.451Z,1002.32
2023-04-21T00:53:32.365Z,1002.32
2023-04-21T00:54:32.374Z,1002.33
2023-04-21T00:55:32.381Z,1002.34
2023-04-21T00:56:32.349Z,1002.35
2023-04-21T00:57:32.374Z,1002.36
2023-04-21T00:58:32.391Z,1002.34
2023-04-21T00:59:32.295Z,1002.40
2023-04-21T01:00:32.321Z,1002.34
2023-04-21T01:01:32.292Z,1002.38
2023-04-21T01:02:32.447Z,1002.41
2023-04-21T01:03:32.492Z,1002.41
2023-04-21T01:04:32.315Z,1002.42
2023-04-21T01:05:32.242Z,1002.47
2023-04-21T01:06:32.253Z,1002.46
2023-04-21T01:07:32.255Z,1002.49
2023-04-21T01:08:32.209Z,1002.47
2023-04-21T01:09:32.205Z,1002.51
2023-04-21T01:10:32.199Z,1002.55
2023-04-21T01:11:32.198Z,1002.53
2023-04-21T01:12:32.175Z,1002.52
2023-04-21T01:13:32.164Z,1002.56
2023-04-21T01:14:32.174Z,1002.56
2023-04-21T01:15:32.126Z,1002.54
2023-04-21T01:16:32.206Z,1002.55
2023-04-21T01:17:32.117Z,1002.57
2023-04-21T01:18:32.148Z,1002.57
2023-04-21T01:19:32.074Z,1002.58
2023-04-21T01:20:32.094Z,1002.59
2023-04-21T01:21:32.082Z,1002.61
2023-04-21T01:22:32.098Z,1002.61
2023-04-21T01:23:32.066Z,1002.62
2023-04-21T01:24:32.059Z,1002.61
2023-04-21T01:25:32.057Z,1002.62
2023-04-21T01:26:32.050Z,1002.61
2023-04-21T01:27:32.015Z,1002.62
2023-04-21T01:28:32.003Z,1002.61
2023-04-21T01:29:32.051Z,1002.60
2023-04-21T01:30:31.986Z,1002.59
2023-04-21T01:31:32.023Z,1002.57
2023-04-21T01:32:32.146Z,1002.59
2023-04-21T01:33:31.991Z,1002.59
2023-04-21T01:34:31.986Z,1002.58
2023-04-21T01:35:31.935Z,1002.57
2023-04-21T01:36:31.927Z,1002.58
2023-04-21T01:37:31.926Z,1002.59
2023-04-21T01:38:31.998Z,1002.59
2023-04-21T01:39:31.969Z,1002.58
2023-04-21T01:40:31.890Z,1002.60
2023-04-21T01:41:31.865Z,1002.59
2023-04-21T01:42:31.984Z,1002.60
2023-04-21T01:43:31.847Z,1002.59
2023-04-21T01:44:31.830Z,1002.59
2023-04-21T01:45:31.936Z,1002.57
2023-04-21T01:46:31.860Z,1002.58
2023-04-21T01:47:31.872Z,1002.58
2023-04-21T01:48:31.792Z,1002.58
2023-04-21T01:49:31.783Z,1002.57
2023-04-21T01:50:31.819Z,1002.58
2023-04-21T01:51:31.749Z,1002.59
2023-04-21T01:52:31.852Z,1002.59
2023-04-21T01:53:31.768Z,1002.59
2023-04-21T01:54:31.757Z,1002.54
2023-04-21T01:55:31.734Z,1002.54
2023-04-21T01:56:31.811Z,1002.55
2023-04-21T01:57:31.704Z,1002.56
2023-04-21T01:58:31.711Z,1002.57
2023-04-21T01:59:31.691Z,1002.59
2023-04-21T02:00:31.651Z,1002.58
2023-04-21T02:01:31.746Z,1002.59
2023-04-21T02:02:31.735Z,1002.57
2023-04-21T02:03:31.810Z,1002.55
2023-04-21T02:04:31.772Z,1002.57
2023-04-21T02:05:31.641Z,1002.56
2023-04-21T02:06:31.618Z,1002.55
2023-04-21T02:07:31.663Z,1002.57
2023-04-21T02:08:31.599Z,1002.55
2023-04-21T02:09:31.575Z,1002.55
2023-04-21T02:10:31.631Z,1002.53
2023-04-21T02:11:31.600Z,1002.54
2023-04-21T02:12:31.571Z,1002.54
2023-04-21T02:13:31.530Z,1002.52
2023-04-21T02:14:31.554Z,1002.50
2023-04-21T02:15:31.556Z,1002.53
2023-04-21T02:16:31.534Z,1002.54
2023-04-21T02:17:31.572Z,1002.52
2023-04-21T02:18:31.488Z,1002.54
2023-04-21T02:19:31.522Z,1002.55
2023-04-21T02:20:31.474Z,1002.58
2023-04-21T02:21:31.454Z,1002.56
2023-04-21T02:22:31.497Z,1002.58
2023-04-21T02:23:31.445Z,1002.60
2023-04-21T02:24:31.454Z,1002.63
2023-04-21T02:25:31.453Z,1002.62
2023-04-21T02:26:31.386Z,1002.62
2023-04-21T02:27:31.454Z,1002.62
2023-04-21T02:28:31.379Z,1002.64
2023-04-21T02:29:31.402Z,1002.62
2023-04-21T02:30:31.353Z,1002.62
2023-04-21T02:31:31.372Z,1002.63
2023-04-21T02:32:31.399Z,1002.64
2023-04-21T02:33:31.386Z,1002.65
2023-04-21T02:34:31.352Z,1002.68
2023-04-21T02:35:31.368Z,1002.64
2023-04-21T02:36:31.304Z,1002.66
2023-04-21T02:37:31.332Z,1002.64
2023-04-21T02:38:31.318Z,1002.65
2023-04-21T02:39:31.304Z,1002.65
2023-04-21T02:40:31.327Z,1002.65
2023-04-21T02:41:31.289Z,1002.65
2023-04-21T02:42:31.243Z,1002.67
2023-04-21T02:43:31.256Z,1002.66
2023-04-21T02:44:31.222Z,1002.68
2023-04-21T02:45:31.246Z,1002.67
2023-04-21T02:46:31.255Z,1002.65
2023-04-21T02:47:31.271Z,1002.66
2023-04-21T02:48:31.210Z,1002.66
2023-04-21T02:49:31.161Z,1002.67
2023-04-21T02:50:31.170Z,1002.67
2023-04-21T02:51:31.315Z,1002.70
2023-04-21T02:52:31.142Z,1002.70
2023-04-21T02:53:31.134Z,1002.71
2023-04-21T02:54:31.091Z,1002.70
2023-04-21T02:55:31.117Z,1002.71
2023-04-21T02:56:31.087Z,1002.70
2023-04-21T02:57:31.086Z,1002.71
2023-04-21T02:58:31.061Z,1002.70
2023-04-21T02:59:31.079Z,1002.69
2023-04-21T03:00:31.096Z,1002.68
2023-04-21T03:01:31.042Z,1002.67
2023-04-21T03:02:31.124Z,1002.66
2023-04-21T03:03:31.399Z,1002.65
2023-04-21T03:04:31.049Z,1002.66
2023-04-21T03:05:30.990Z,1002.65
2023-04-21T03:06:38.489Z,1002.64
2023-04-21T03:07:30.959Z,1002.64
2023-04-21T03:08:31.034Z,1002.63
2023-04-21T03:09:30.965Z,1002.63
2023-04-21T03:10:30.938Z,1002.65
2023-04-21T03:11:30.945Z,1002.65
2023-04-21T03:12:30.914Z,1002.65
2023-04-21T03:13:30.934Z,1002.66
2023-04-21T03:14:30.909Z,1002.67
2023-04-21T03:15:30.899Z,1002.64
2023-04-21T03:16:30.907Z,1002.64
2023-04-21T03:17:33.001Z,1002.65
2023-04-21T03:18:30.814Z,1002.60
2023-04-21T03:19:30.845Z,1002.60
2023-04-21T03:20:30.852Z,1002.60
2023-04-21T03:21:30.828Z,1002.60
2023-04-21T03:22:30.805Z,1002.58
2023-04-21T03:23:30.822Z,1002.59
2023-04-21T03:24:30.795Z,1002.59
2023-04-21T03:25:30.802Z,1002.59
2023-04-21T03:26:30.783Z,1002.58
2023-04-21T03:27:30.819Z,1002.59
2023-04-21T03:28:30.756Z,1002.56
2023-04-21T03:29:30.732Z,1002.54
2023-04-21T03:30:30.734Z,1002.54
2023-04-21T03:31:30.768Z,1002.52
2023-04-21T03:32:30.728Z,1002.50
2023-04-21T03:33:30.707Z,1002.50
2023-04-21T03:34:30.736Z,1002.47
2023-04-21T03:35:30.675Z,1002.46
2023-04-21T03:36:30.660Z,1002.41
2023-04-21T03:37:30.664Z,1002.41
2023-04-21T03:38:30.638Z,1002.37
2023-04-21T03:39:30.643Z,1002.36
2023-04-21T03:40:30.628Z,1002.36
2023-04-21T03:41:30.654Z,1002.34
2023-04-21T03:42:30.610Z,1002.36
2023-04-21T03:43:30.611Z,1002.36
2023-04-21T03:44:30.609Z,1002.34
2023-04-21T03:45:30.623Z,1002.35
2023-04-21T03:46:30.586Z,1002.34
2023-04-21T03:47:30.576Z,1002.34
2023-04-21T03:48:30.546Z,1002.36
2023-04-21T03:49:30.592Z,1002.36
2023-04-21T03:50:30.521Z,1002.34
2023-04-21T03:51:30.524Z,1002.30
2023-04-21T03:52:30.489Z,1002.25
2023-04-21T03:53:30.511Z,1002.24
2023-04-21T03:54:30.555Z,1002.25
2023-04-21T03:55:30.424Z,1002.25
2023-04-21T03:56:30.474Z,1002.26
2023-04-21T03:57:30.463Z,1002.20
2023-04-21T03:58:30.409Z,1002.16
2023-04-21T03:59:30.388Z,1002.19
2023-04-21T04:00:30.363Z,1002.16
2023-04-21T04:01:30.397Z,1002.19
2023-04-21T04:02:30.535Z,1002.22
2023-04-21T04:03:30.632Z,1002.25
2023-04-21T04:04:30.531Z,1002.23
2023-04-21T04:05:30.379Z,1002.23
2023-04-21T04:06:30.370Z,1002.21
2023-04-21T04:07:30.277Z,1002.22
2023-04-21T04:08:30.324Z,1002.18
2023-04-21T04:09:30.286Z,1002.20
2023-04-21T04:10:30.273Z,1002.20
2023-04-21T04:11:30.270Z,1002.20
2023-04-21T04:12:30.247Z,1002.23
2023-04-21T04:13:30.236Z,1002.24
2023-04-21T04:14:30.211Z,1002.24
2023-04-21T04:15:30.627Z,1002.22
2023-04-21T04:16:30.280Z,1002.23
2023-04-21T04:17:30.353Z,1002.23
2023-04-21T04:18:30.170Z,1002.23
2023-04-21T04:19:30.192Z,1002.23
2023-04-21T04:20:30.183Z,1002.25
2023-04-21T04:21:30.161Z,1002.27
2023-04-21T04:22:30.144Z,1002.27
2023-04-21T04:23:30.130Z,1002.29
2023-04-21T04:24:30.143Z,1002.33
2023-04-21T04:25:30.133Z,1002.32
2023-04-21T04:26:30.100Z,1002.31
2023-04-21T04:27:30.089Z,1002.34
2023-04-21T04:28:30.060Z,1002.35
2023-04-21T04:29:30.210Z,1002.36
2023-04-21T04:30:30.076Z,1002.36
2023-04-21T04:31:30.089Z,1002.36
2023-04-21T04:32:30.137Z,1002.36
2023-04-21T04:33:30.030Z,1002.34
2023-04-21T04:34:30.028Z,1002.35
2023-04-21T04:35:30.022Z,1002.38
2023-04-21T04:36:29.982Z,1002.39
2023-04-21T04:37:29.980Z,1002.39
2023-04-21T04:38:29.965Z,1002.38
2023-04-21T04:39:29.982Z,1002.37
2023-04-21T04:40:29.940Z,1002.41
2023-04-21T04:41:29.959Z,1002.45
2023-04-21T04:42:29.925Z,1002.48
2023-04-21T04:43:29.948Z,1002.49
2023-04-21T04:44:29.903Z,1002.49
2023-04-21T04:45:29.910Z,1002.47
2023-04-21T04:46:29.959Z,1002.48
2023-04-21T04:47:29.932Z,1002.53
2023-04-21T04:48:29.854Z,1002.54
2023-04-21T04:49:29.897Z,1002.52
2023-04-21T04:50:29.843Z,1002.52
2023-04-21T04:51:29.836Z,1002.54
2023-04-21T04:52:29.837Z,1002.57
2023-04-21T04:53:29.952Z,1002.54
2023-04-21T04:54:29.821Z,1002.55
2023-04-21T04:55:29.861Z,1002.54
2023-04-21T04:56:29.777Z,1002.54
2023-04-21T04:57:29.770Z,1002.54
2023-04-21T04:58:29.740Z,1002.54
2023-04-21T04:59:30.257Z,1002.53
2023-04-21T05:00:29.771Z,1002.55
2023-04-21T05:01:29.787Z,1002.57
2023-04-21T05:02:29.816Z,1002.58
2023-04-21T05:03:29.851Z,1002.61
2023-04-21T05:04:29.887Z,1002.61
2023-04-21T05:05:29.706Z,1002.59
2023-04-21T05:06:29.669Z,1002.57
2023-04-21T05:07:29.740Z,1002.58
2023-04-21T05:08:29.663Z,1002.59
2023-04-21T05:09:29.653Z,1002.58
2023-04-21T05:10:29.674Z,1002.60
2023-04-21T05:11:29.983Z,1002.61
2023-04-21T05:12:29.690Z,1002.62
2023-04-21T05:13:29.663Z,1002.62
2023-04-21T05:14:29.635Z,1002.62
2023-04-21T05:15:29.591Z,1002.62
2023-04-21T05:16:29.644Z,1002.62
2023-04-21T05:17:29.611Z,1002.63
2023-04-21T05:18:29.587Z,1002.64
2023-04-21T05:19:29.576Z,1002.63
2023-04-21T05:20:29.571Z,1002.62
2023-04-21T05:21:29.550Z,1002.61
2023-04-21T05:22:29.506Z,1002.60
2023-04-21T05:23:29.534Z,1002.57
2023-04-21T05:24:29.522Z,1002.58
2023-04-21T05:25:29.528Z,1002.59
2023-04-21T05:26:29.456Z,1002.61
2023-04-21T05:27:29.468Z,1002.60
2023-04-21T05:28:29.464Z,1002.62
2023-04-21T05:29:29.445Z,1002.62
2023-04-21T05:30:29.433Z,1002.63
2023-04-21T05:31:29.464Z,1002.63
2023-04-21T05:32:29.711Z,1002.64
2023-04-21T05:33:29.417Z,1002.65
2023-04-21T05:34:29.415Z,1002.67
2023-04-21T05:35:29.400Z,1002.67
2023-04-21T05:36:29.355Z,1002.68
2023-04-21T05:37:29.355Z,1002.71
2023-04-21T05:38:29.352Z,1002.72
2023-04-21T05:39:29.378Z,1002.72
2023-04-21T05:40:29.326Z,1002.73
2023-04-21T05:41:29.332Z,1002.73
2023-04-21T05:42:29.303Z,1002.73
2023-04-21T05:43:29.310Z,1002.72
2023-04-21T05:44:29.272Z,1002.74
2023-04-21T05:45:29.290Z,1002.77
2023-04-21T05:46:29.295Z,1002.80
2023-04-21T05:47:29.311Z,1002.82
2023-04-21T05:48:29.223Z,1002.84
2023-04-21T05:49:29.248Z,1002.82
2023-04-21T05:50:29.226Z,1002.78
2023-04-21T05:51:29.209Z,1002.77
2023-04-21T05:52:29.257Z,1002.77
2023-04-21T05:53:29.187Z,1002.79
2023-04-21T05:54:29.173Z,1002.81
2023-04-21T05:55:29.212Z,1002.83
2023-04-21T05:56:29.143Z,1002.85
2023-04-21T05:57:29.180Z,1002.86
2023-04-21T05:58:29.165Z,1002.85
2023-04-21T05:59:29.186Z,1002.83
2023-04-21T06:00:29.165Z,1002.84
2023-04-21T06:01:29.101Z,1002.84
2023-04-21T06:02:29.228Z,1002.81
2023-04-21T06:03:29.215Z,1002.80
2023-04-21T06:04:29.453Z,1002.77
2023-04-21T06:05:29.162Z,1002.79
2023-04-21T06:06:29.075Z,1002.80
2023-04-21T06:07:29.066Z,1002.77
2023-04-21T06:08:29.053Z,1002.78
2023-04-21T06:09:29.014Z,1002.76
2023-04-21T06:10:29.062Z,1002.72
2023-04-21T06:11:28.999Z,1002.72
2023-04-21T06:12:28.979Z,1002.72
2023-04-21T06:13:29.000Z,1002.73
2023-04-21T06:14:28.980Z,1002.71
2023-04-21T06:15:28.960Z,1002.68
2023-04-21T06:16:28.981Z,1002.69
2023-04-21T06:17:28.955Z,1002.65
2023-04-21T06:18:28.924Z,1002.65
2023-04-21T06:19:28.947Z,1002.63
2023-04-21T06:20:28.909Z,1002.61
2023-04-21T06:21:28.905Z,1002.58
2023-04-21T06:22:28.940Z,1002.59
2023-04-21T06:23:28.892Z,1002.58
2023-04-21T06:24:28.851Z,1002.59
2023-04-21T06:25:28.900Z,1002.62
2023-04-21T06:26:28.854Z,1002.60
2023-04-21T06:27:28.828Z,1002.60
2023-04-21T06:28:28.836Z,1002.62
2023-04-21T06:29:28.817Z,1002.60
2023-04-21T06:30:28.874Z,1002.58
2023-04-21T06:31:28.843Z,1002.57
2023-04-21T06:32:28.810Z,1002.57
2023-04-21T06:33:28.771Z,1002.56
2023-04-21T06:34:28.766Z,1002.56
2023-04-21T06:35:28.736Z,1002.58
2023-04-21T06:36:28.749Z,1002.59
2023-04-21T06:37:28.722Z,1002.60
2023-04-21T06:38:28.707Z,1002.60
2023-04-21T06:39:28.710Z,1002.62
2023-04-21T06:40:28.713Z,1002.63
2023-04-21T06:41:28.752Z,1002.62
2023-04-21T06:42:28.707Z,1002.64
2023-04-21T06:43:28.673Z,1002.64
2023-04-21T06:44:28.669Z,1002.63
2023-04-21T06:45:28.615Z,1002.64
2023-04-21T06:46:28.672Z,1002.62
2023-04-21T06:47:28.683Z,1002.63
2023-04-21T06:48:28.613Z,1002.62
2023-04-21T06:49:28.612Z,1002.64
2023-04-21T06:50:28.605Z,1002.62
2023-04-21T06:51:28.650Z,1002.62
2023-04-21T06:52:28.595Z,1002.61
2023-04-21T06:53:28.542Z,1002.59
2023-04-21T06:54:28.571Z,1002.57
2023-04-21T06:55:28.555Z,1002.58
2023-04-21T06:56:28.531Z,1002.56
2023-04-21T06:57:28.518Z,1002.58
2023-04-21T06:58:28.497Z,1002.56
2023-04-21T06:59:28.512Z,1002.56
2023-04-21T07:00:28.501Z,1002.56
2023-04-21T07:01:28.548Z,1002.53
2023-04-21T07:02:28.662Z,1002.52
2023-04-21T07:03:28.537Z,1002.53
2023-04-21T07:04:28.506Z,1002.53
2023-04-21T07:05:28.432Z,1002.51
2023-04-21T07:06:28.427Z,1002.48
2023-04-21T07:07:28.419Z,1002.47
2023-04-21T07:08:28.423Z,1002.51
2023-04-21T07:09:28.375Z,1002.52
2023-04-21T07:10:28.400Z,1002.53
2023-04-21T07:11:28.385Z,1002.47
2023-04-21T07:12:28.353Z,1002.47
2023-04-21T07:13:28.368Z,1002.43
2023-04-21T07:14:28.405Z,1002.42
2023-04-21T07:15:28.323Z,1002.43
2023-04-21T07:16:28.399Z,1002.43
2023-04-21T07:17:28.323Z,1002.43
2023-04-21T07:18:28.302Z,1002.44
2023-04-21T07:19:28.321Z,1002.44
2023-04-21T07:20:28.308Z,1002.43
2023-04-21T07:21:28.265Z,1002.44
2023-04-21T07:22:28.256Z,1002.42
2023-04-21T07:23:28.279Z,1002.42
2023-04-21T07:24:28.265Z,1002.41
2023-04-21T07:25:28.357Z,1002.36
2023-04-21T07:26:28.227Z,1002.40
2023-04-21T07:27:28.196Z,1002.33
2023-04-21T07:28:28.200Z,1002.32
2023-04-21T07:29:28.196Z,1002.31
2023-04-21T07:30:28.180Z,1002.34
2023-04-21T07:31:28.216Z,1002.35
2023-04-21T07:32:28.220Z,1002.37
2023-04-21T07:33:28.136Z,1002.42
2023-04-21T07:34:28.158Z,1002.45
2023-04-21T07:35:28.412Z,1002.45
2023-04-21T07:36:28.862Z,1002.48
2023-04-21T07:37:28.090Z,1002.46
2023-04-21T07:38:28.603Z,1002.46
2023-04-21T07:39:28.088Z,1002.45
2023-04-21T07:40:28.086Z,1002.41
2023-04-21T07:41:28.056Z,1002.39
2023-04-21T07:42:28.052Z,1002.39
2023-04-21T07:43:28.035Z,1002.39
2023-04-21T07:44:28.053Z,1002.41
2023-04-21T07:45:28.014Z,1002.40
2023-04-21T07:46:28.062Z,1002.38
2023-04-21T07:47:28.086Z,1002.34
2023-04-21T07:48:27.969Z,1002.36
2023-04-21T07:49:28.181Z,1002.36
2023-04-21T07:50:27.953Z,1002.35
2023-04-21T07:51:27.954Z,1002.36
2023-04-21T07:52:28.109Z,1002.36
2023-04-21T07:53:27.920Z,1002.34
2023-04-21T07:54:28.879Z,1002.39
2023-04-21T07:55:27.936Z,1002.35
2023-04-21T07:56:27.901Z,1002.34
2023-04-21T07:57:27.896Z,1002.32
2023-04-21T07:58:27.891Z,1002.31
2023-04-21T07:59:27.864Z,1002.34
2023-04-21T08:00:27.864Z,1002.31
2023-04-21T08:01:27.832Z,1002.36
2023-04-21T08:02:27.969Z,1002.35
2023-04-21T08:03:28.003Z,1002.34
2023-04-21T08:04:27.894Z,1002.35
2023-04-21T08:05:31.339Z,1002.35
2023-04-21T08:06:27.935Z,1002.33
2023-04-21T08:07:27.785Z,1002.32
2023-04-21T08:08:28.350Z,1002.35
2023-04-21T08:09:27.767Z,1002.34
2023-04-21T08:10:27.798Z,1002.33
2023-04-21T08:11:27.811Z,1002.29
2023-04-21T08:12:27.728Z,1002.32
2023-04-21T08:13:27.696Z,1002.29
2023-04-21T08:14:27.712Z,1002.29
2023-04-21T08:15:27.732Z,1002.28
2023-04-21T08:16:27.776Z,1002.26
2023-04-21T08:17:27.712Z,1002.27
2023-04-21T08:30:42.924Z,1002.30
2023-04-21T08:31:44.082Z,1002.30
2023-04-21T08:32:44.026Z,1002.30
2023-04-21T08:33:57.900Z,1002.29
2023-04-21T08:34:43.804Z,1002.30
2023-04-21T08:35:54.963Z,1002.30
2023-04-21T08:36:43.820Z,1002.30
2023-04-21T08:37:43.813Z,1002.29
2023-04-21T08:38:43.748Z,1002.30
2023-04-21T08:39:43.928Z,1002.30
2023-04-21T08:40:43.733Z,1002.32
2023-04-21T08:41:43.752Z,1002.30
2023-04-21T08:42:43.740Z,1002.26
2023-04-21T08:43:43.783Z,1002.28
2023-04-21T08:44:43.697Z,1002.27
2023-04-21T08:45:43.782Z,1002.28
2023-04-21T08:51:46.856Z,1002.30
2023-04-21T08:52:47.751Z,1002.29
2023-04-21T08:53:47.786Z,1002.29
2023-04-21T08:54:47.663Z,1002.26
2023-04-21T08:55:53.777Z,1002.29
2023-04-21T08:56:47.598Z,1002.29
2023-04-21T08:57:47.605Z,1002.29
2023-04-21T08:58:47.578Z,1002.30
2023-04-21T08:59:47.577Z,1002.31
2023-04-21T09:00:47.575Z,1002.30
2023-04-21T09:01:47.576Z,1002.31
2023-04-21T09:02:47.610Z,1002.30
2023-04-21T09:03:47.652Z,1002.31
2023-04-21T09:04:47.802Z,1002.31
2023-04-21T09:05:47.717Z,1002.29
2023-04-21T09:06:47.558Z,1002.27
2023-04-21T09:07:47.494Z,1002.31
2023-04-21T09:08:47.462Z,1002.29
2023-04-21T09:09:47.463Z,1002.26
2023-04-21T09:10:47.475Z,1002.28
2023-04-21T09:11:47.463Z,1002.27
2023-04-21T09:12:47.438Z,1002.27
2023-04-21T09:13:47.419Z,1002.28
2023-04-21T09:14:47.429Z,1002.31
2023-04-21T09:15:47.435Z,1002.30
2023-04-21T09:16:47.479Z,1002.29
2023-04-21T09:17:47.449Z,1002.33
2023-04-21T09:18:47.365Z,1002.33
2023-04-21T09:19:47.432Z,1002.31
2023-04-21T09:20:47.453Z,1002.31
2023-04-21T09:21:47.348Z,1002.32
2023-04-21T09:22:47.334Z,1002.35
2023-04-21T09:23:47.345Z,1002.34
2023-04-21T09:24:47.321Z,1002.33
2023-04-21T09:25:47.331Z,1002.30
2023-04-21T09:26:47.305Z,1002.31
2023-04-21T09:27:47.304Z,1002.35
2023-04-21T09:28:47.279Z,1002.34
2023-04-21T09:29:47.257Z,1002.34
2023-04-21T09:30:47.320Z,1002.36
2023-04-21T09:31:47.312Z,1002.36
2023-04-21T09:32:47.286Z,1002.35
2023-04-21T09:33:57.554Z,1002.34
2023-04-21T09:34:47.228Z,1002.38
2023-04-21T09:35:47.206Z,1002.37
2023-04-21T09:36:47.310Z,1002.39
2023-04-21T09:37:47.196Z,1002.40
2023-04-21T09:38:47.192Z,1002.42
2023-04-21T09:40:03.337Z,1002.42
2023-04-21T09:40:47.169Z,1002.43
2023-04-21T09:41:47.164Z,1002.41
2023-04-21T09:42:47.135Z,1002.43
2023-04-21T09:43:47.122Z,1002.42
2023-04-21T09:44:53.856Z,1002.42
2023-04-21T09:45:47.116Z,1002.42
2023-04-21T09:46:47.225Z,1002.44
2023-04-21T09:47:47.161Z,1002.44
2023-04-21T09:48:47.074Z,1002.44
2023-04-21T09:49:47.052Z,1002.42
2023-04-21T09:52:47.019Z,1002.42
2023-04-21T09:53:49.025Z,1002.44
2023-04-21T09:54:47.023Z,1002.42
2023-04-21T09:55:46.995Z,1002.41
2023-04-21T09:56:47.013Z,1002.41
2023-04-21T09:57:46.968Z,1002.41
2023-04-21T09:58:46.968Z,1002.40
2023-04-21T09:59:46.963Z,1002.37
2023-04-21T10:00:46.957Z,1002.34
2023-04-21T10:01:46.952Z,1002.33
2023-04-21T10:02:47.075Z,1002.29
2023-04-21T10:03:47.092Z,1002.31
2023-04-21T10:04:47.027Z,1002.30
2023-04-21T10:05:46.918Z,1002.29
2023-04-21T10:06:46.886Z,1002.27
2023-04-21T10:07:46.861Z,1002.27
2023-04-21T10:08:46.865Z,1002.29
2023-04-21T10:09:46.843Z,1002.29
2023-04-21T10:10:46.847Z,1002.29
2023-04-21T10:11:46.841Z,1002.28
2023-04-21T10:12:46.814Z,1002.27
2023-04-21T10:13:46.792Z,1002.27
2023-04-21T10:14:46.811Z,1002.26
2023-04-21T10:15:46.806Z,1002.24
2023-04-21T10:16:46.875Z,1002.24
2023-04-21T10:17:46.793Z,1002.23
2023-04-21T10:18:46.760Z,1002.24
2023-04-21T10:19:46.731Z,1002.23
2023-04-21T10:20:46.779Z,1002.22
2023-04-21T10:21:46.716Z,1002.23
2023-04-21T10:22:46.726Z,1002.23
2023-04-21T10:23:46.698Z,1002.24
2023-04-21T10:24:46.697Z,1002.26
2023-04-21T10:25:46.670Z,1002.24
2023-04-21T10:26:46.709Z,1002.25
2023-04-21T10:27:46.636Z,1002.25
2023-04-21T10:28:46.665Z,1002.26
2023-04-21T10:29:56.135Z,1002.25
2023-04-21T10:30:46.615Z,1002.25
2023-04-21T10:31:46.623Z,1002.22
2023-04-21T10:32:46.728Z,1002.23
2023-04-21T10:33:46.583Z,1002.21
2023-04-21T10:34:46.606Z,1002.20
2023-04-21T10:35:46.589Z,1002.18
2023-04-21T10:36:46.547Z,1002.16
2023-04-21T10:37:46.537Z,1002.15
2023-04-21T10:38:46.561Z,1002.16
2023-04-21T10:39:46.526Z,1002.15
2023-04-21T10:40:46.545Z,1002.13
2023-04-21T10:41:46.618Z,1002.12
2023-04-21T10:42:46.510Z,1002.09
2023-04-21T10:43:49.230Z,1002.08
2023-04-21T10:44:46.476Z,1002.05
2023-04-21T10:45:46.455Z,1002.04
2023-04-21T10:46:46.522Z,1002.02
2023-04-21T10:47:46.498Z,1002.00
2023-04-21T10:48:46.475Z,1001.98
2023-04-21T10:49:46.425Z,1001.97
2023-04-21T10:50:46.404Z,1001.95
2023-04-21T10:51:46.390Z,1001.93
2023-04-21T10:52:46.393Z,1001.91
2023-04-21T10:53:46.397Z,1001.89
2023-04-21T10:54:46.434Z,1001.87
2023-04-21T10:55:46.345Z,1001.85
2023-04-21T10:56:46.356Z,1001.83
2023-04-21T10:57:46.327Z,1001.81
2023-04-21T10:58:46.315Z,1001.79
2023-04-21T10:59:46.310Z,1001.79
2023-04-21T11:00:46.330Z,1001.78
2023-04-21T11:01:46.284Z,1001.77
2023-04-21T11:02:46.410Z,1001.76
2023-04-21T11:03:46.399Z,1001.76
2023-04-21T11:04:46.620Z,1001.77
2023-04-21T11:05:46.219Z,1001.77
2023-04-21T11:06:46.251Z,1001.76
2023-04-21T11:07:46.240Z,1001.77
2023-04-21T11:08:46.202Z,1001.76
2023-04-21T11:09:46.187Z,1001.75
2023-04-21T11:10:46.198Z,1001.73
2023-04-21T11:11:46.210Z,1001.70
2023-04-21T11:12:46.164Z,1001.67
2023-04-21T11:13:46.129Z,1001.66
2023-04-21T11:14:46.158Z,1001.65
2023-04-21T11:15:46.166Z,1001.64
2023-04-21T11:16:46.321Z,1001.64
2023-04-21T11:17:46.156Z,1001.64
2023-04-21T11:18:46.092Z,1001.64
2023-04-21T11:19:46.074Z,1001.64
2023-04-21T11:20:46.106Z,1001.65
2023-04-21T11:21:46.125Z,1001.65
2023-04-21T11:22:46.080Z,1001.68
2023-04-21T11:23:46.036Z,1001.69
2023-04-21T11:24:46.066Z,1001.69
2023-04-21T11:25:46.077Z,1001.68
2023-04-21T11:26:46.044Z,1001.68
2023-04-21T11:27:46.039Z,1001.66
2023-04-21T11:28:46.138Z,1001.60
2023-04-21T11:29:46.001Z,1001.55
2023-04-21T11:30:45.986Z,1001.50
2023-04-21T11:31:45.973Z,1001.45
2023-04-21T11:32:46.025Z,1001.42
2023-04-21T11:33:45.951Z,1001.40
2023-04-21T11:34:45.981Z,1001.39
2023-04-21T11:35:45.890Z,1001.38
2023-04-21T11:36:45.885Z,1001.35
2023-04-21T11:37:45.944Z,1001.32
2023-04-21T11:38:45.901Z,1001.31
2023-04-21T11:39:45.910Z,1001.30
2023-04-21T11:40:45.881Z,1001.29
2023-04-21T11:41:45.847Z,1001.28
2023-04-21T11:42:46.052Z,1001.25
2023-04-21T11:43:45.926Z,1001.24
2023-04-21T11:46:08.840Z,1001.22
2023-04-21T11:47:09.779Z,1001.24
2023-04-21T11:48:09.851Z,1001.23
2023-04-21T11:49:10.612Z,1001.20
2023-04-21T11:50:09.971Z,1001.18
2023-04-21T11:51:09.738Z,1001.14
2023-04-21T11:52:09.740Z,1001.12
2023-04-21T11:53:09.762Z,1001.10
2023-04-21T11:54:09.732Z,1001.08
2023-04-21T11:55:09.749Z,1001.05
2023-04-21T11:56:09.699Z,1001.01
2023-04-21T11:57:10.688Z,1000.97
2023-04-21T11:58:09.715Z,1000.93
2023-04-21T11:59:09.705Z,1000.90
2023-04-21T12:00:09.636Z,1000.88
2023-04-21T12:01:09.746Z,1000.86
2023-04-21T12:02:09.660Z,1000.81
2023-04-21T12:03:10.064Z,1000.79
2023-04-21T12:04:10.055Z,1000.79
2023-04-21T12:05:09.902Z,1000.79
2023-04-21T12:06:09.853Z,1000.79
2023-04-21T12:07:09.677Z,1000.79
2023-04-21T12:08:09.573Z,1000.78
2023-04-21T12:09:09.608Z,1000.74
2023-04-21T12:10:09.630Z,1000.76
2023-04-21T12:11:09.662Z,1000.74
2023-04-21T12:12:09.599Z,1000.76
2023-04-21T12:13:09.609Z,1000.70
2023-04-21T12:14:09.552Z,1000.68
2023-04-21T12:15:09.537Z,1000.70
2023-04-21T12:16:10.857Z,1000.70
2023-04-21T12:17:09.517Z,1000.73
2023-04-21T12:18:09.593Z,1000.76
2023-04-21T12:19:09.465Z,1000.76
2023-04-21T12:20:09.635Z,1000.74
2023-04-21T12:21:09.555Z,1000.74
2023-04-21T12:22:09.452Z,1000.74
2023-04-21T12:23:09.434Z,1000.72
2023-04-21T12:24:09.434Z,1000.71
2023-04-21T12:25:09.511Z,1000.71
2023-04-21T12:26:09.427Z,1000.70